createdAt,value
2023-03-20T00:01:16.382Z,11.32
2023-03-20T00:03:43.132Z,10.35
2023-03-20T00:06:18.374Z,7.72
2023-03-20T00:08:47.174Z,6.57
2023-03-20T00:11:31.136Z,7.82
2023-03-20T00:14:07.099Z,8.90
2023-03-20T00:16:36.973Z,7.43
2023-03-20T00:19:05.106Z,6.32
2023-03-20T00:21:32.620Z,7.53
2023-03-20T00:24:00.532Z,8.60
2023-03-20T00:26:34.764Z,9.85
2023-03-20T00:29:03.943Z,8.65
2023-03-20T00:31:33.382Z,7.45
2023-03-20T00:34:02.404Z,8.95
2023-03-20T00:36:29.497Z,7.35
2023-03-20T00:38:59.351Z,6.38
2023-03-20T00:41:32.690Z,8.13
2023-03-20T00:44:22.398Z,7.95
2023-03-20T00:47:01.549Z,8.00
2023-03-20T00:49:30.790Z,12.13
2023-03-20T00:51:58.042Z,9.63
2023-03-20T00:54:24.885Z,8.93
2023-03-20T00:57:19.950Z,8.70
2023-03-20T00:59:56.340Z,10.38
2023-03-20T01:02:28.947Z,8.27
2023-03-20T01:04:55.982Z,8.25
2023-03-20T01:07:22.518Z,11.13
2023-03-20T01:09:48.964Z,8.55
2023-03-20T01:12:16.364Z,9.57
2023-03-20T01:14:43.759Z,9.85
2023-03-20T01:17:23.066Z,13.32
2023-03-20T01:19:49.874Z,10.38
2023-03-20T01:22:18.096Z,14.60
2023-03-20T01:24:44.807Z,12.45
2023-03-20T01:27:16.965Z,13.05
2023-03-20T01:29:44.298Z,13.75
2023-03-20T01:32:13.912Z,13.30
2023-03-20T01:34:40.774Z,14.50
2023-03-20T01:37:14.088Z,15.23
2023-03-20T01:39:41.029Z,14.48
2023-03-20T01:42:08.075Z,17.00
2023-03-20T01:44:36.441Z,17.10
2023-03-20T01:47:14.886Z,19.85
2023-03-20T01:50:00.406Z,24.02
2023-03-20T01:52:27.269Z,21.02
2023-03-20T01:54:53.747Z,20.27
2023-03-20T01:57:25.666Z,23.05
2023-03-20T02:00:03.804Z,26.48
2023-03-20T02:02:44.037Z,25.23
2023-03-20T02:05:17.670Z,23.33
2023-03-20T02:07:49.978Z,28.83
2023-03-20T02:10:18.979Z,27.98
2023-03-20T02:12:52.885Z,29.02
2023-03-20T02:15:29.788Z,27.92
2023-03-20T02:18:14.025Z,32.45
2023-03-20T02:21:03.535Z,30.23
2023-03-20T02:23:53.045Z,34.92
2023-03-20T02:26:40.676Z,34.10
2023-03-20T02:29:36.645Z,36.63
2023-03-20T02:32:18.757Z,33.45
2023-03-20T02:35:01.254Z,35.75
2023-03-20T02:37:27.715Z,42.90
2023-03-20T02:40:16.071Z,41.55
2023-03-20T02:43:10.926Z,35.33
2023-03-20T02:46:14.196Z,38.83
2023-03-20T02:48:58.028Z,44.05
2023-03-20T02:51:36.380Z,40.60
2023-03-20T02:54:21.735Z,41.92
2023-03-20T02:57:16.445Z,40.58
2023-03-20T02:59:55.612Z,41.03
2023-03-20T03:02:34.639Z,39.30
2023-03-20T03:05:05.474Z,36.63
2023-03-20T03:07:34.738Z,42.83
2023-03-20T03:10:11.583Z,42.72
2023-03-20T03:12:43.278Z,38.13
2023-03-20T03:15:22.893Z,42.33
2023-03-20T03:17:49.792Z,39.35
2023-03-20T03:20:24.510Z,37.72
2023-03-20T03:22:51.398Z,48.30
2023-03-20T03:25:18.164Z,40.67
2023-03-20T03:27:53.198Z,49.88
2023-03-20T03:30:29.842Z,42.72
2023-03-20T03:33:23.067Z,44.63
2023-03-20T03:35:51.423Z,42.08
2023-03-20T03:38:37.985Z,38.85
2023-03-20T03:41:28.464Z,41.67
2023-03-20T03:44:18.236Z,41.53
2023-03-20T03:46:53.766Z,36.10
2023-03-20T03:49:29.060Z,47.47
2023-03-20T03:52:00.629Z,39.25
2023-03-20T03:54:34.558Z,43.58
2023-03-20T03:57:27.862Z,39.20
2023-03-20T03:59:57.229Z,37.28
2023-03-20T04:02:24.164Z,34.10
2023-03-20T04:04:53.098Z,30.42
2023-03-20T04:07:20.458Z,30.02
2023-03-20T04:09:47.212Z,31.92
2023-03-20T04:12:38.210Z,32.75
2023-03-20T04:15:09.586Z,29.45
2023-03-20T04:17:36.493Z,28.63
2023-03-20T04:20:05.009Z,29.50
2023-03-20T04:22:34.695Z,26.77
2023-03-20T04:25:17.445Z,32.40
2023-03-20T04:27:43.945Z,33.13
2023-03-20T04:30:18.734Z,28.08
2023-03-20T04:33:04.149Z,31.77
2023-03-20T04:35:42.754Z,30.10
2023-03-20T04:38:12.928Z,28.75
2023-03-20T04:40:39.945Z,24.17
2023-03-20T04:43:06.581Z,26.65
2023-03-20T04:45:33.830Z,24.58
2023-03-20T04:48:01.901Z,21.92
2023-03-20T04:50:29.306Z,23.33
2023-03-20T04:52:56.083Z,23.98
2023-03-20T04:55:22.891Z,23.88
2023-03-20T04:57:50.662Z,22.13
2023-03-20T05:00:18.433Z,21.58
2023-03-20T05:02:45.531Z,24.85
2023-03-20T05:05:12.040Z,24.58
2023-03-20T05:07:38.563Z,21.23
2023-03-20T05:10:09.132Z,25.50
2023-03-20T05:12:44.745Z,28.65
2023-03-20T05:15:29.825Z,25.95
2023-03-20T05:18:14.774Z,27.27
2023-03-20T05:20:52.991Z,28.30
2023-03-20T05:23:27.214Z,23.40
2023-03-20T05:26:12.481Z,30.92
2023-03-20T05:29:05.756Z,25.63
2023-03-20T05:31:43.142Z,24.45
2023-03-20T05:34:18.109Z,25.20
2023-03-20T05:36:54.446Z,28.70
2023-03-20T05:39:46.684Z,28.75
2023-03-20T05:42:26.642Z,26.42
2023-03-20T05:45:10.252Z,28.88
2023-03-20T05:48:02.689Z,26.92
2023-03-20T05:50:40.933Z,25.58
2023-03-20T05:53:27.776Z,24.63
2023-03-20T05:55:54.286Z,24.48
2023-03-20T05:58:50.074Z,26.00
2023-03-20T06:01:31.222Z,23.08
2023-03-20T06:04:08.447Z,26.52
2023-03-20T06:06:59.397Z,27.13
2023-03-20T06:09:26.637Z,27.30
2023-03-20T06:11:53.655Z,28.73
2023-03-20T06:14:21.011Z,23.00
2023-03-20T06:16:55.256Z,28.50
2023-03-20T06:19:22.130Z,24.85
2023-03-20T06:21:49.934Z,22.52
2023-03-20T06:24:19.219Z,28.38
2023-03-20T06:26:45.990Z,23.60
2023-03-20T06:29:13.560Z,24.90
2023-03-20T06:31:40.348Z,24.02
2023-03-20T06:34:11.364Z,24.55
2023-03-20T06:36:45.241Z,20.70
2023-03-20T06:39:17.792Z,24.58
2023-03-20T06:41:44.267Z,21.75
2023-03-20T06:44:11.140Z,22.83
2023-03-20T06:46:56.554Z,23.20
2023-03-20T06:49:23.211Z,26.38
2023-03-20T06:51:50.661Z,21.05
2023-03-20T06:54:23.652Z,25.30
2023-03-20T06:56:51.500Z,26.88
2023-03-20T06:59:18.378Z,25.95
2023-03-20T07:01:45.542Z,24.30
2023-03-20T07:04:12.748Z,23.27
2023-03-20T07:06:46.282Z,20.42
2023-03-20T07:09:12.854Z,21.38
2023-03-20T07:11:39.549Z,21.92
2023-03-20T07:14:06.232Z,24.73
2023-03-20T07:16:59.392Z,25.83
2023-03-20T07:19:26.187Z,24.45
2023-03-20T07:22:01.808Z,24.38
2023-03-20T07:24:32.703Z,22.58
2023-03-20T07:26:59.797Z,27.10
2023-03-20T07:29:26.966Z,23.30
2023-03-20T07:31:54.778Z,27.02
2023-03-20T07:34:29.029Z,32.72
2023-03-20T07:36:56.436Z,25.67
2023-03-20T07:39:23.175Z,23.80
2023-03-20T07:42:08.743Z,28.55
2023-03-20T07:44:44.912Z,24.85
2023-03-20T07:47:12.023Z,25.13
2023-03-20T07:49:38.447Z,26.83
2023-03-20T07:52:07.249Z,26.10
2023-03-20T07:54:33.758Z,24.67
2023-03-20T07:57:00.282Z,29.23
2023-03-20T07:59:27.076Z,29.23
2023-03-20T08:01:53.556Z,26.20
2023-03-20T08:04:22.626Z,24.23
2023-03-20T08:06:49.765Z,26.60
2023-03-20T08:09:16.935Z,29.42
2023-03-20T08:11:43.693Z,27.85
2023-03-20T08:14:10.574Z,29.60
2023-03-20T08:16:37.164Z,26.33
2023-03-20T08:19:05.308Z,26.77
2023-03-20T08:21:32.790Z,27.85
2023-03-20T08:23:59.223Z,24.80
2023-03-20T08:26:26.020Z,29.50
2023-03-20T08:28:53.237Z,28.38
2023-03-20T08:31:20.214Z,19.35
2023-03-20T08:33:47.170Z,26.33
2023-03-20T08:36:15.860Z,27.63
2023-03-20T08:38:42.870Z,26.92
2023-03-20T08:41:11.137Z,26.92
2023-03-20T08:43:37.913Z,24.83
2023-03-20T08:46:04.750Z,29.13
2023-03-20T08:48:33.152Z,26.40
2023-03-20T08:50:59.817Z,27.58
2023-03-20T08:53:27.218Z,29.60
2023-03-20T08:55:54.352Z,26.60
2023-03-20T08:58:21.536Z,28.05
2023-03-20T09:00:48.012Z,29.92
2023-03-20T09:03:17.606Z,27.08
2023-03-20T09:05:45.494Z,28.20
2023-03-20T09:08:12.853Z,24.95
2023-03-20T09:10:40.711Z,21.10
2023-03-20T09:13:25.640Z,26.27
2023-03-20T09:15:53.476Z,22.52
2023-03-20T09:18:21.356Z,27.35
2023-03-20T09:20:48.619Z,23.58
2023-03-20T09:23:15.768Z,20.05
2023-03-20T09:25:42.255Z,21.77
2023-03-20T09:28:09.102Z,23.65
2023-03-20T09:30:36.345Z,23.15
2023-03-20T09:33:03.009Z,21.50
2023-03-20T09:35:29.498Z,22.00
2023-03-20T09:37:56.579Z,22.55
2023-03-20T09:40:28.868Z,20.23
2023-03-20T09:42:58.832Z,20.42
2023-03-20T09:45:41.448Z,20.65
2023-03-20T09:48:20.204Z,18.17
2023-03-20T09:50:53.805Z,20.73
2023-03-20T09:53:35.542Z,19.98
2023-03-20T09:56:02.583Z,14.50
2023-03-20T09:58:33.642Z,15.90
2023-03-20T10:01:02.558Z,18.55
2023-03-20T10:03:50.605Z,17.13
2023-03-20T10:06:18.053Z,17.25
2023-03-20T10:08:45.933Z,16.17
2023-03-20T10:11:34.227Z,18.92
2023-03-20T10:14:21.304Z,17.00
2023-03-20T10:17:13.706Z,17.38
2023-03-20T10:19:53.361Z,16.02
2023-03-20T10:22:32.779Z,15.18
2023-03-20T10:25:07.325Z,15.77
2023-03-20T10:27:41.951Z,15.15
2023-03-20T10:30:20.368Z,18.63
2023-03-20T10:33:18.914Z,14.98
2023-03-20T10:36:01.835Z,12.05
2023-03-20T10:38:49.319Z,14.80
2023-03-20T10:41:23.214Z,15.32
2023-03-20T10:43:52.745Z,17.45
2023-03-20T10:46:44.684Z,17.23
2023-03-20T10:49:35.961Z,13.73
2023-03-20T10:52:06.590Z,12.77
2023-03-20T10:54:41.994Z,15.98
2023-03-20T10:57:17.948Z,20.05
2023-03-20T10:59:49.632Z,18.25
2023-03-20T11:02:18.253Z,15.23
2023-03-20T11:04:45.039Z,15.70
2023-03-20T11:07:26.880Z,16.13
2023-03-20T11:10:05.579Z,15.23
2023-03-20T11:12:34.206Z,13.52
2023-03-20T11:15:04.907Z,16.63
2023-03-20T11:17:31.378Z,17.08
2023-03-20T11:20:05.129Z,14.85
2023-03-20T11:22:32.086Z,18.17
2023-03-20T11:25:04.227Z,16.60
2023-03-20T11:27:35.974Z,14.07
2023-03-20T11:30:06.012Z,17.35
2023-03-20T11:32:42.060Z,15.15
2023-03-20T11:35:24.000Z,19.20
2023-03-20T11:37:52.837Z,20.33
2023-03-20T11:40:34.243Z,21.63
2023-03-20T11:43:00.696Z,28.95
2023-03-20T11:45:34.396Z,23.00
2023-03-20T11:48:03.504Z,29.95
2023-03-20T11:50:42.035Z,29.40
2023-03-20T11:53:23.315Z,28.15
2023-03-20T11:56:14.718Z,27.30
2023-03-20T11:59:10.397Z,26.77
2023-03-20T12:01:44.548Z,27.17
2023-03-20T12:04:17.973Z,26.50
2023-03-20T12:07:19.470Z,25.23
2023-03-20T12:09:54.968Z,20.25
2023-03-20T12:12:43.644Z,20.58
2023-03-20T12:15:12.925Z,21.27
2023-03-20T12:17:58.261Z,21.38
2023-03-20T12:20:34.187Z,17.05
2023-03-20T12:23:14.068Z,17.77
2023-03-20T12:26:03.048Z,16.40
2023-03-20T12:28:38.524Z,16.88
2023-03-20T12:31:05.064Z,14.43
2023-03-20T12:33:42.887Z,15.20
2023-03-20T12:36:16.543Z,14.85
2023-03-20T12:38:44.098Z,15.55
2023-03-20T12:41:44.557Z,15.15
2023-03-20T12:44:20.908Z,13.20
2023-03-20T12:46:59.773Z,12.82
2023-03-20T12:49:42.976Z,12.55
2023-03-20T12:52:37.476Z,13.82
2023-03-20T12:55:29.885Z,12.15
2023-03-20T12:58:18.372Z,12.05
2023-03-20T13:01:03.757Z,11.95
2023-03-20T13:03:36.719Z,12.68
2023-03-20T13:06:30.749Z,12.10
2023-03-20T13:09:06.135Z,15.50
2023-03-20T13:11:45.872Z,13.52
2023-03-20T13:14:18.528Z,17.35
2023-03-20T13:17:03.652Z,11.45
2023-03-20T13:19:42.104Z,14.57
2023-03-20T13:22:25.506Z,13.13
2023-03-20T13:25:25.282Z,12.80
2023-03-20T13:28:01.842Z,13.07
2023-03-20T13:30:44.221Z,12.20
2023-03-20T13:33:28.547Z,13.10
2023-03-20T13:36:07.221Z,10.13
2023-03-20T13:38:38.597Z,14.25
2023-03-20T13:41:09.729Z,10.45
2023-03-20T13:43:48.409Z,12.23
2023-03-20T13:46:19.198Z,18.35
2023-03-20T13:48:46.722Z,14.07
2023-03-20T13:51:31.683Z,9.57
2023-03-20T13:54:32.335Z,13.68
2023-03-20T13:57:22.551Z,11.82
2023-03-20T14:00:05.100Z,13.65
2023-03-20T14:02:53.602Z,16.92
2023-03-20T14:05:23.393Z,15.35
2023-03-20T14:07:56.481Z,11.82
2023-03-20T14:10:23.285Z,13.52
2023-03-20T14:13:00.689Z,11.60
2023-03-20T14:15:31.621Z,12.82
2023-03-20T14:18:02.967Z,12.27
2023-03-20T14:20:41.885Z,14.65
2023-03-20T14:23:18.396Z,13.90
2023-03-20T14:25:47.716Z,15.82
2023-03-20T14:28:14.234Z,14.80
2023-03-20T14:30:53.431Z,13.48
2023-03-20T14:33:22.950Z,14.57
2023-03-20T14:36:12.348Z,11.18
2023-03-20T14:39:03.763Z,11.73
2023-03-20T14:41:47.187Z,12.93
2023-03-20T14:44:29.972Z,14.75
2023-03-20T14:47:18.998Z,12.60
2023-03-20T14:49:52.769Z,13.45
2023-03-20T14:52:34.759Z,10.75
2023-03-20T14:55:47.812Z,13.38
2023-03-20T14:58:35.770Z,11.15
2023-03-20T15:01:07.693Z,8.82
2023-03-20T15:03:36.166Z,10.73
2023-03-20T15:06:06.960Z,11.90
2023-03-20T15:08:50.826Z,10.50
2023-03-20T15:11:18.052Z,14.63
2023-03-20T15:13:46.114Z,10.55
2023-03-20T15:16:15.031Z,9.65
2023-03-20T15:18:52.589Z,14.13
2023-03-20T15:21:23.403Z,13.00
2023-03-20T15:23:49.879Z,10.52
2023-03-20T15:26:19.662Z,8.38
2023-03-20T15:28:47.433Z,11.80
2023-03-20T15:31:27.453Z,10.07
2023-03-20T15:33:55.634Z,12.90
2023-03-20T15:36:30.164Z,12.50
2023-03-20T15:39:16.761Z,15.20
2023-03-20T15:41:51.383Z,11.90
2023-03-20T15:44:25.588Z,12.75
2023-03-20T15:47:00.425Z,12.57
2023-03-20T15:49:28.068Z,12.38
2023-03-20T15:51:59.472Z,12.48
2023-03-20T15:54:26.300Z,14.30
2023-03-20T15:56:56.025Z,13.75
2023-03-20T15:59:27.578Z,13.20
2023-03-20T16:01:57.887Z,13.32
2023-03-20T16:04:26.078Z,13.38
2023-03-20T16:06:55.776Z,12.75
2023-03-20T16:09:22.692Z,16.10
2023-03-20T16:12:02.650Z,15.55
2023-03-20T16:14:32.548Z,14.98
2023-03-20T16:17:01.576Z,16.08
2023-03-20T16:19:29.163Z,14.20
2023-03-20T16:21:59.366Z,15.60
2023-03-20T16:24:35.415Z,17.17
2023-03-20T16:27:07.792Z,17.60
2023-03-20T16:29:35.812Z,16.42
2023-03-20T16:32:12.024Z,17.05
2023-03-20T16:34:39.626Z,16.10
2023-03-20T16:37:27.620Z,16.88
2023-03-20T16:40:16.136Z,15.68
2023-03-20T16:42:43.778Z,15.40
2023-03-20T16:45:30.251Z,16.67
2023-03-20T16:48:23.992Z,15.27
2023-03-20T16:50:57.163Z,20.73
2023-03-20T16:53:24.893Z,20.52
2023-03-20T16:55:55.578Z,15.95
2023-03-20T16:58:25.610Z,15.27
2023-03-20T17:01:04.863Z,15.27
2023-03-20T17:03:43.659Z,13.50
2023-03-20T17:06:19.630Z,17.48
2023-03-20T17:08:50.179Z,13.80
2023-03-20T17:11:32.924Z,13.05
2023-03-20T17:13:59.992Z,15.32
2023-03-20T17:16:26.938Z,13.18
2023-03-20T17:19:07.305Z,14.00
2023-03-20T17:21:34.338Z,13.60
2023-03-20T17:24:00.824Z,12.90
2023-03-20T17:26:27.340Z,11.88
2023-03-20T17:28:54.700Z,14.60
2023-03-20T17:31:21.278Z,10.90
2023-03-20T17:33:47.860Z,12.40
2023-03-20T17:36:26.352Z,15.57
2023-03-20T17:38:53.771Z,12.27
2023-03-20T17:41:21.350Z,11.23
2023-03-20T17:43:48.023Z,12.60
2023-03-20T17:46:27.213Z,17.25
2023-03-20T17:49:01.661Z,12.38
2023-03-20T17:51:28.554Z,14.57
2023-03-20T17:53:57.719Z,14.00
2023-03-20T17:56:32.480Z,17.40
2023-03-20T17:59:00.354Z,11.98
2023-03-20T18:01:28.423Z,12.35
2023-03-20T18:03:56.514Z,12.98
2023-03-20T18:06:31.429Z,17.10
2023-03-20T18:08:59.983Z,12.68
2023-03-20T18:11:27.166Z,16.48
2023-03-20T18:13:53.870Z,14.85
2023-03-20T18:16:23.407Z,13.43
2023-03-20T18:18:50.904Z,11.38
2023-03-20T18:21:17.709Z,12.68
2023-03-20T18:23:48.212Z,12.27
2023-03-20T18:26:23.804Z,10.73
2023-03-20T18:28:52.209Z,11.40
2023-03-20T18:31:19.629Z,11.60
2023-03-20T18:33:48.009Z,10.45
2023-03-20T18:36:20.585Z,9.82
2023-03-20T18:38:47.823Z,8.07
2023-03-20T18:41:14.867Z,11.60
2023-03-20T18:43:42.271Z,10.80
2023-03-20T18:46:17.526Z,9.30
2023-03-20T18:48:44.578Z,7.70
2023-03-20T18:51:11.695Z,12.43
2023-03-20T18:53:40.713Z,11.27
2023-03-20T18:56:14.041Z,11.80
2023-03-20T18:58:40.854Z,11.55
2023-03-20T19:01:07.459Z,11.13
2023-03-20T19:03:39.196Z,10.07
2023-03-20T19:06:10.555Z,8.73
2023-03-20T19:08:38.739Z,8.85
2023-03-20T19:11:05.918Z,8.32
2023-03-20T19:13:32.379Z,10.93
2023-03-20T19:15:58.984Z,10.85
2023-03-20T19:18:26.905Z,10.52
2023-03-20T19:20:56.093Z,10.50
2023-03-20T19:23:24.435Z,10.60
2023-03-20T19:25:53.099Z,12.45
2023-03-20T19:28:34.540Z,11.35
2023-03-20T19:31:05.032Z,8.35
2023-03-20T19:33:33.201Z,8.07
2023-03-20T19:36:03.312Z,10.93
2023-03-20T19:38:31.284Z,10.05
2023-03-20T19:40:59.249Z,9.50
2023-03-20T19:43:25.995Z,13.15
2023-03-20T19:45:58.014Z,7.93
2023-03-20T19:48:27.919Z,7.72
2023-03-20T19:50:56.411Z,9.98
2023-03-20T19:53:27.677Z,10.27
2023-03-20T19:55:55.430Z,8.63
2023-03-20T19:58:22.595Z,7.07
2023-03-20T20:00:59.176Z,12.48
2023-03-20T20:03:27.260Z,9.65
2023-03-20T20:05:54.454Z,7.90
2023-03-20T20:08:41.363Z,7.25
2023-03-20T20:11:09.764Z,6.60
2023-03-20T20:13:47.146Z,8.50
2023-03-20T20:16:22.802Z,8.57
2023-03-20T20:18:49.345Z,10.25
2023-03-20T20:24:03.203Z,7.35
2023-03-20T20:26:31.247Z,7.97
2023-03-20T20:29:01.908Z,7.50
2023-03-20T20:31:31.862Z,7.90
2023-03-20T20:34:34.890Z,8.07
2023-03-20T20:39:31.923Z,7.30
2023-03-20T20:41:58.407Z,9.77
2023-03-20T20:44:24.871Z,9.93
2023-03-20T20:46:51.601Z,9.73
2023-03-20T20:49:19.774Z,15.85
2023-03-20T20:51:47.428Z,8.73
2023-03-20T20:54:14.262Z,8.82
2023-03-20T20:56:41.587Z,9.77
2023-03-20T20:59:08.213Z,10.07
2023-03-20T21:01:34.986Z,8.48
2023-03-20T21:04:02.349Z,11.20
2023-03-20T21:06:57.987Z,12.05
2023-03-20T21:09:15.350Z,13.77
2023-03-20T21:11:41.853Z,15.52
2023-03-20T21:14:08.389Z,13.23
2023-03-20T21:16:35.416Z,10.88
2023-03-20T21:19:01.937Z,12.98
2023-03-20T21:21:28.437Z,13.82
2023-03-20T21:23:55.472Z,9.13
2023-03-20T21:26:22.319Z,9.88
2023-03-20T21:28:48.887Z,10.55
2023-03-20T21:31:26.764Z,15.10
2023-03-20T21:33:55.465Z,16.75
2023-03-20T21:36:23.417Z,16.02
2023-03-20T21:39:08.679Z,13.40
2023-03-20T21:41:37.840Z,15.35
2023-03-20T21:44:06.451Z,15.27
2023-03-20T22:03:30.854Z,16.23
2023-03-20T22:07:18.735Z,13.15
2023-03-20T22:12:43.638Z,13.85
2023-03-20T22:15:33.924Z,13.68
2023-03-20T22:17:59.859Z,14.00
2023-03-20T22:23:45.550Z,19.63
2023-03-20T22:27:01.556Z,16.58
2023-03-20T22:29:35.890Z,18.60
2023-03-20T22:37:48.227Z,16.33
2023-03-20T22:40:42.060Z,18.75
2023-03-20T22:45:28.872Z,17.15
2023-03-20T22:48:01.460Z,17.80
2023-03-20T22:50:28.275Z,18.73
2023-03-20T22:52:55.615Z,19.38
2023-03-20T22:55:24.927Z,17.88
2023-03-20T22:58:05.938Z,15.90
2023-03-20T23:00:35.007Z,16.27
2023-03-20T23:03:15.393Z,15.23
2023-03-20T23:05:47.202Z,21.50
2023-03-20T23:08:14.079Z,20.50
2023-03-20T23:10:45.802Z,23.05
2023-03-20T23:13:12.624Z,16.33
2023-03-20T23:15:39.464Z,17.63
2023-03-20T23:18:06.287Z,18.13
2023-03-20T23:20:32.872Z,19.70
2023-03-20T23:22:59.364Z,18.80
2023-03-20T23:25:38.278Z,17.75
2023-03-20T23:28:06.756Z,18.88
2023-03-20T23:30:41.921Z,17.98
2023-03-20T23:33:10.606Z,17.90
2023-03-20T23:35:37.126Z,17.98
2023-03-20T23:38:04.132Z,21.77
2023-03-20T23:40:30.996Z,19.60
2023-03-20T23:42:57.547Z,16.58
2023-03-20T23:45:24.082Z,16.63
2023-03-20T23:47:50.977Z,16.33
2023-03-20T23:50:28.848Z,22.10
2023-03-20T23:53:09.416Z,18.17
2023-03-20T23:55:40.772Z,22.65
2023-03-20T23:58:07.565Z,21.58
